sensor_id;sensor_type;location;lat;lon;timestamp;pressure;altitude;pressure_sealevel;temperature;humidity
47556;BME280;33291;46.222;26.460;2022-12-18T00:00:41;97059.97;;;4.40;78.91
47556;BME280;33291;46.222;26.460;2022-12-18T00:03:06;97067.31;;;4.32;79.89
47556;BME280;33291;46.222;26.460;2022-12-18T00:05:32;97064.16;;;4.27;80.16
47556;BME280;33291;46.222;26.460;2022-12-18T00:07:57;97070.78;;;4.31;80.83
47556;BME280;33291;46.222;26.460;2022-12-18T00:10:23;97072.63;;;4.29;81.37
47556;BME280;33291;46.222;26.460;2022-12-18T00:12:48;97084.44;;;4.33;81.86
47556;BME280;33291;46.222;26.460;2022-12-18T00:15:14;97080.78;;;4.37;81.62
47556;BME280;33291;46.222;26.460;2022-12-18T00:17:39;97077.09;;;4.41;81.66
47556;BME280;33291;46.222;26.460;2022-12-18T00:20:05;97085.94;;;4.37;80.95
47556;BME280;33291;46.222;26.460;2022-12-18T00:22:31;97070.47;;;4.21;80.24
47556;BME280;33291;46.222;26.460;2022-12-18T00:24:56;97089.78;;;4.30;80.06
47556;BME280;33291;46.222;26.460;2022-12-18T00:27:22;97091.28;;;4.18;80.05
47556;BME280;33291;46.222;26.460;2022-12-18T00:29:48;97106.28;;;4.12;79.83
47556;BME280;33291;46.222;26.460;2022-12-18T00:32:13;97110.66;;;4.09;79.71
47556;BME280;33291;46.222;26.460;2022-12-18T00:34:39;97121.81;;;4.10;79.89
47556;BME280;33291;46.222;26.460;2022-12-18T00:37:04;97121.91;;;4.08;79.78
47556;BME280;33291;46.222;26.460;2022-12-18T00:39:30;97111.09;;;4.02;80.06
47556;BME280;33291;46.222;26.460;2022-12-18T00:41:55;97121.31;;;4.03;79.93
47556;BME280;33291;46.222;26.460;2022-12-18T00:44:40;97120.81;;;3.97;79.91
47556;BME280;33291;46.222;26.460;2022-12-18T00:47:05;97129.38;;;3.97;79.91
47556;BME280;33291;46.222;26.460;2022-12-18T00:49:30;97139.19;;;3.90;80.48
47556;BME280;33291;46.222;26.460;2022-12-18T00:51:56;97146.84;;;3.92;80.47
47556;BME280;33291;46.222;26.460;2022-12-18T00:54:21;97143.50;;;3.90;81.09
47556;BME280;33291;46.222;26.460;2022-12-18T00:56:47;97124.06;;;3.84;81.32
47556;BME280;33291;46.222;26.460;2022-12-18T00:59:12;97138.50;;;3.87;83.13
47556;BME280;33291;46.222;26.460;2022-12-18T01:01:38;97135.69;;;3.91;83.10
47556;BME280;33291;46.222;26.460;2022-12-18T01:04:05;97132.53;;;4.02;82.50
47556;BME280;33291;46.222;26.460;2022-12-18T01:06:30;97129.47;;;4.12;82.25
47556;BME280;33291;46.222;26.460;2022-12-18T01:08:56;97129.97;;;4.18;82.29
47556;BME280;33291;46.222;26.460;2022-12-18T01:11:22;97144.44;;;4.21;81.38
47556;BME280;33291;46.222;26.460;2022-12-18T01:13:49;97142.94;;;4.17;80.31
47556;BME280;33291;46.222;26.460;2022-12-18T01:16:16;97151.19;;;4.07;79.66
47556;BME280;33291;46.222;26.460;2022-12-18T01:18:42;97154.91;;;4.02;79.87
47556;BME280;33291;46.222;26.460;2022-12-18T01:21:09;97134.88;;;3.91;79.72
47556;BME280;33291;46.222;26.460;2022-12-18T01:23:35;97153.97;;;3.87;79.98
47556;BME280;33291;46.222;26.460;2022-12-18T01:26:06;97162.78;;;3.83;79.94
47556;BME280;33291;46.222;26.460;2022-12-18T01:28:32;97162.97;;;3.80;79.89
47556;BME280;33291;46.222;26.460;2022-12-18T01:30:57;97157.97;;;3.77;80.31
47556;BME280;33291;46.222;26.460;2022-12-18T01:33:23;97166.75;;;3.72;79.91
47556;BME280;33291;46.222;26.460;2022-12-18T01:35:48;97172.06;;;3.69;79.78
47556;BME280;33291;46.222;26.460;2022-12-18T01:38:14;97165.66;;;3.61;79.80
47556;BME280;33291;46.222;26.460;2022-12-18T01:40:39;97160.56;;;3.59;80.12
47556;BME280;33291;46.222;26.460;2022-12-18T01:43:05;97166.72;;;3.56;79.99
47556;BME280;33291;46.222;26.460;2022-12-18T01:45:31;97172.72;;;3.57;80.38
47556;BME280;33291;46.222;26.460;2022-12-18T01:48:07;97165.22;;;3.52;80.30
47556;BME280;33291;46.222;26.460;2022-12-18T01:50:39;97171.19;;;3.53;80.67
47556;BME280;33291;46.222;26.460;2022-12-18T01:53:17;97160.91;;;3.53;80.87
47556;BME280;33291;46.222;26.460;2022-12-18T01:55:55;97167.31;;;3.62;79.63
47556;BME280;33291;46.222;26.460;2022-12-18T01:58:56;97173.59;;;3.73;79.89
47556;BME280;33291;46.222;26.460;2022-12-18T02:01:24;97172.25;;;3.66;80.32
47556;BME280;33291;46.222;26.460;2022-12-18T02:03:50;97178.88;;;3.70;79.87
47556;BME280;33291;46.222;26.460;2022-12-18T02:06:40;97146.75;;;3.44;80.35
47556;BME280;33291;46.222;26.460;2022-12-18T02:09:20;97179.81;;;3.52;80.08
47556;BME280;33291;46.222;26.460;2022-12-18T02:17:18;97204.03;;;3.83;78.18
47556;BME280;33291;46.222;26.460;2022-12-18T02:22:39;97198.84;;;4.16;73.91
47556;BME280;33291;46.222;26.460;2022-12-18T02:27:54;97200.91;;;4.41;71.31
47556;BME280;33291;46.222;26.460;2022-12-18T02:30:23;97183.13;;;4.37;70.89
47556;BME280;33291;46.222;26.460;2022-12-18T02:32:52;97225.41;;;4.66;71.67
47556;BME280;33291;46.222;26.460;2022-12-18T02:35:26;97217.56;;;4.68;69.58
47556;BME280;33291;46.222;26.460;2022-12-18T02:37:54;97223.13;;;4.76;69.20
47556;BME280;33291;46.222;26.460;2022-12-18T02:40:22;97225.38;;;4.82;68.29
47556;BME280;33291;46.222;26.460;2022-12-18T02:42:48;97227.69;;;4.87;67.05
47556;BME280;33291;46.222;26.460;2022-12-18T02:45:14;97236.25;;;4.87;68.20
47556;BME280;33291;46.222;26.460;2022-12-18T02:47:43;97247.44;;;4.88;66.63
47556;BME280;33291;46.222;26.460;2022-12-18T02:50:21;97243.09;;;4.88;66.69
47556;BME280;33291;46.222;26.460;2022-12-18T03:01:25;97258.25;;;4.94;65.33
47556;BME280;33291;46.222;26.460;2022-12-18T03:03:58;97264.31;;;4.93;64.66
47556;BME280;33291;46.222;26.460;2022-12-18T03:06:38;97266.81;;;4.95;64.66
47556;BME280;33291;46.222;26.460;2022-12-18T03:09:10;97231.69;;;4.76;64.11
47556;BME280;33291;46.222;26.460;2022-12-18T03:11:43;97262.41;;;4.97;64.28
47556;BME280;33291;46.222;26.460;2022-12-18T03:14:32;97274.56;;;4.95;63.73
47556;BME280;33291;46.222;26.460;2022-12-18T03:17:02;97285.81;;;4.94;62.93
47556;BME280;33291;46.222;26.460;2022-12-18T03:19:31;97290.06;;;4.95;63.14
47556;BME280;33291;46.222;26.460;2022-12-18T03:21:58;97279.97;;;4.90;62.58
47556;BME280;33291;46.222;26.460;2022-12-18T03:24:27;97289.06;;;4.97;62.19
47556;BME280;33291;46.222;26.460;2022-12-18T03:27:00;97284.88;;;4.95;61.94
47556;BME280;33291;46.222;26.460;2022-12-18T03:29:34;97297.78;;;4.95;62.47
47556;BME280;33291;46.222;26.460;2022-12-18T03:32:05;97295.47;;;4.90;61.94
47556;BME280;33291;46.222;26.460;2022-12-18T03:34:34;97309.63;;;4.99;61.52
47556;BME280;33291;46.222;26.460;2022-12-18T03:37:01;97311.47;;;4.97;61.91
47556;BME280;33291;46.222;26.460;2022-12-18T03:39:29;97315.13;;;4.93;62.31
47556;BME280;33291;46.222;26.460;2022-12-18T03:42:15;97318.63;;;4.92;62.26
47556;BME280;33291;46.222;26.460;2022-12-18T03:47:46;97323.22;;;4.87;62.68
47556;BME280;33291;46.222;26.460;2022-12-18T03:50:19;97324.63;;;4.92;61.51
47556;BME280;33291;46.222;26.460;2022-12-18T03:52:54;97324.72;;;4.91;62.12
47556;BME280;33291;46.222;26.460;2022-12-18T03:55:23;97320.13;;;4.96;61.73
47556;BME280;33291;46.222;26.460;2022-12-18T03:57:51;97330.28;;;4.99;61.34
47556;BME280;33291;46.222;26.460;2022-12-18T04:00:18;97342.63;;;4.94;60.92
47556;BME280;33291;46.222;26.460;2022-12-18T04:02:52;97341.69;;;4.95;61.12
47556;BME280;33291;46.222;26.460;2022-12-18T04:05:21;97340.94;;;4.93;61.25
47556;BME280;33291;46.222;26.460;2022-12-18T04:07:49;97347.78;;;4.94;61.52
47556;BME280;33291;46.222;26.460;2022-12-18T04:10:16;97355.63;;;4.92;61.77
47556;BME280;33291;46.222;26.460;2022-12-18T04:12:42;97356.78;;;4.87;62.48
47556;BME280;33291;46.222;26.460;2022-12-18T04:15:09;97366.78;;;4.93;61.34
47556;BME280;33291;46.222;26.460;2022-12-18T04:17:35;97345.09;;;4.79;61.19
47556;BME280;33291;46.222;26.460;2022-12-18T04:20:00;97370.88;;;4.97;62.32
47556;BME280;33291;46.222;26.460;2022-12-18T04:22:26;97372.75;;;4.93;62.09
47556;BME280;33291;46.222;26.460;2022-12-18T04:24:51;97384.84;;;4.93;62.88
47556;BME280;33291;46.222;26.460;2022-12-18T04:27:17;97383.16;;;4.92;62.09
47556;BME280;33291;46.222;26.460;2022-12-18T04:29:42;97390.00;;;4.93;61.14
47556;BME280;33291;46.222;26.460;2022-12-18T04:32:08;97385.25;;;4.85;59.76
47556;BME280;33291;46.222;26.460;2022-12-18T04:34:34;97399.69;;;4.89;60.20
47556;BME280;33291;46.222;26.460;2022-12-18T04:36:59;97401.41;;;4.89;59.54
47556;BME280;33291;46.222;26.460;2022-12-18T04:39:25;97405.75;;;4.88;58.48
47556;BME280;33291;46.222;26.460;2022-12-18T04:41:50;97416.00;;;4.90;57.99
47556;BME280;33291;46.222;26.460;2022-12-18T04:44:15;97415.56;;;4.82;58.54
47556;BME280;33291;46.222;26.460;2022-12-18T04:46:41;97416.06;;;4.72;58.31
47556;BME280;33291;46.222;26.460;2022-12-18T04:49:07;97436.22;;;4.82;57.88
47556;BME280;33291;46.222;26.460;2022-12-18T04:51:32;97431.69;;;4.69;58.47
47556;BME280;33291;46.222;26.460;2022-12-18T04:53:58;97440.44;;;4.67;58.66
47556;BME280;33291;46.222;26.460;2022-12-18T04:56:23;97449.94;;;4.66;59.48
47556;BME280;33291;46.222;26.460;2022-12-18T04:58:49;97451.66;;;4.66;60.26
47556;BME280;33291;46.222;26.460;2022-12-18T05:01:16;97451.72;;;4.64;59.59
47556;BME280;33291;46.222;26.460;2022-12-18T05:03:42;97450.06;;;4.63;59.75
47556;BME280;33291;46.222;26.460;2022-12-18T05:06:08;97466.22;;;4.67;59.14
47556;BME280;33291;46.222;26.460;2022-12-18T05:08:34;97461.47;;;4.59;59.28
47556;BME280;33291;46.222;26.460;2022-12-18T05:11:01;97473.59;;;4.57;60.81
47556;BME280;33291;46.222;26.460;2022-12-18T05:13:27;97485.00;;;4.53;59.40
47556;BME280;33291;46.222;26.460;2022-12-18T05:15:53;97474.53;;;4.56;58.88
47556;BME280;33291;46.222;26.460;2022-12-18T05:18:18;97487.56;;;4.53;57.09
47556;BME280;33291;46.222;26.460;2022-12-18T05:20:44;97502.50;;;4.46;56.59
47556;BME280;33291;46.222;26.460;2022-12-18T05:23:09;97502.66;;;4.43;56.75
47556;BME280;33291;46.222;26.460;2022-12-18T05:25:35;97498.38;;;4.43;56.90
47556;BME280;33291;46.222;26.460;2022-12-18T05:28:00;97497.66;;;4.40;55.94
47556;BME280;33291;46.222;26.460;2022-12-18T05:30:26;97500.31;;;4.38;56.00
47556;BME280;33291;46.222;26.460;2022-12-18T05:32:52;97499.09;;;4.28;56.71
47556;BME280;33291;46.222;26.460;2022-12-18T05:35:18;97522.03;;;4.34;56.59
47556;BME280;33291;46.222;26.460;2022-12-18T05:37:44;97519.31;;;4.37;57.16
47556;BME280;33291;46.222;26.460;2022-12-18T05:40:10;97524.31;;;4.40;55.12
47556;BME280;33291;46.222;26.460;2022-12-18T05:42:36;97530.38;;;4.39;55.38
47556;BME280;33291;46.222;26.460;2022-12-18T05:45:01;97541.88;;;4.32;55.38
47556;BME280;33291;46.222;26.460;2022-12-18T05:47:27;97532.78;;;4.25;55.77
47556;BME280;33291;46.222;26.460;2022-12-18T05:49:54;97557.50;;;4.29;55.51
47556;BME280;33291;46.222;26.460;2022-12-18T05:52:20;97549.19;;;4.24;55.68
47556;BME280;33291;46.222;26.460;2022-12-18T05:54:45;97569.66;;;4.27;55.03
47556;BME280;33291;46.222;26.460;2022-12-18T05:57:10;97569.09;;;4.20;54.76
47556;BME280;33291;46.222;26.460;2022-12-18T05:59:36;97559.16;;;4.13;54.50
47556;BME280;33291;46.222;26.460;2022-12-18T06:02:02;97570.31;;;4.13;54.04
47556;BME280;33291;46.222;26.460;2022-12-18T06:04:27;97584.03;;;4.14;54.80
47556;BME280;33291;46.222;26.460;2022-12-18T06:06:56;97586.53;;;4.15;54.03
47556;BME280;33291;46.222;26.460;2022-12-18T06:09:22;97588.22;;;4.16;53.50
47556;BME280;33291;46.222;26.460;2022-12-18T06:11:47;97592.53;;;4.16;53.91
47556;BME280;33291;46.222;26.460;2022-12-18T06:14:13;97582.72;;;4.05;54.31
47556;BME280;33291;46.222;26.460;2022-12-18T06:16:38;97588.59;;;4.08;54.12
47556;BME280;33291;46.222;26.460;2022-12-18T06:19:05;97594.66;;;4.07;54.47
47556;BME280;33291;46.222;26.460;2022-12-18T06:21:32;97612.97;;;4.01;53.10
47556;BME280;33291;46.222;26.460;2022-12-18T06:23:58;97618.88;;;4.03;51.97
47556;BME280;33291;46.222;26.460;2022-12-18T06:26:23;97625.00;;;4.01;51.90
47556;BME280;33291;46.222;26.460;2022-12-18T06:28:49;97631.31;;;3.95;51.84
47556;BME280;33291;46.222;26.460;2022-12-18T06:31:15;97653.44;;;3.99;52.43
47556;BME280;33291;46.222;26.460;2022-12-18T06:33:40;97631.59;;;3.89;51.99
47556;BME280;33291;46.222;26.460;2022-12-18T06:36:07;97641.47;;;3.98;51.96
47556;BME280;33291;46.222;26.460;2022-12-18T06:38:35;97636.47;;;3.95;52.41
47556;BME280;33291;46.222;26.460;2022-12-18T06:41:00;97657.56;;;4.03;51.98
47556;BME280;33291;46.222;26.460;2022-12-18T06:43:30;97658.34;;;4.05;51.97
47556;BME280;33291;46.222;26.460;2022-12-18T06:46:00;97675.19;;;4.13;51.80
47556;BME280;33291;46.222;26.460;2022-12-18T06:48:26;97671.50;;;4.18;50.14
47556;BME280;33291;46.222;26.460;2022-12-18T06:50:51;97663.50;;;4.05;51.16
47556;BME280;33291;46.222;26.460;2022-12-18T06:53:17;97671.50;;;3.99;51.47
47556;BME280;33291;46.222;26.460;2022-12-18T06:55:42;97662.38;;;3.92;51.94
47556;BME280;33291;46.222;26.460;2022-12-18T06:58:08;97671.16;;;3.88;51.30
47556;BME280;33291;46.222;26.460;2022-12-18T07:00:34;97667.75;;;3.87;51.87
47556;BME280;33291;46.222;26.460;2022-12-18T07:02:59;97681.25;;;3.92;50.06
47556;BME280;33291;46.222;26.460;2022-12-18T07:05:25;97676.31;;;3.88;50.33
47556;BME280;33291;46.222;26.460;2022-12-18T07:07:50;97676.44;;;3.85;50.64
47556;BME280;33291;46.222;26.460;2022-12-18T07:10:16;97670.66;;;3.80;51.28
47556;BME280;33291;46.222;26.460;2022-12-18T07:12:41;97676.44;;;3.85;51.91
47556;BME280;33291;46.222;26.460;2022-12-18T07:15:07;97691.06;;;3.84;50.84
47556;BME280;33291;46.222;26.460;2022-12-18T07:17:32;97684.31;;;3.82;51.11
47556;BME280;33291;46.222;26.460;2022-12-18T07:19:58;97679.16;;;3.82;51.71
47556;BME280;33291;46.222;26.460;2022-12-18T07:22:25;97689.19;;;3.88;51.21
47556;BME280;33291;46.222;26.460;2022-12-18T07:24:51;97708.19;;;3.85;52.12
47556;BME280;33291;46.222;26.460;2022-12-18T07:27:16;97701.53;;;3.81;51.59
47556;BME280;33291;46.222;26.460;2022-12-18T07:29:42;97711.75;;;3.83;50.61
47556;BME280;33291;46.222;26.460;2022-12-18T07:32:08;97709.25;;;3.81;51.59
47556;BME280;33291;46.222;26.460;2022-12-18T07:34:33;97713.56;;;3.81;52.04
47556;BME280;33291;46.222;26.460;2022-12-18T07:36:59;97718.78;;;3.79;51.49
47556;BME280;33291;46.222;26.460;2022-12-18T07:39:24;97712.94;;;3.76;51.14
47556;BME280;33291;46.222;26.460;2022-12-18T07:41:50;97728.25;;;3.79;51.70
47556;BME280;33291;46.222;26.460;2022-12-18T07:44:33;97730.78;;;3.80;51.39
47556;BME280;33291;46.222;26.460;2022-12-18T07:46:59;97726.50;;;3.79;51.43
47556;BME280;33291;46.222;26.460;2022-12-18T07:49:24;97733.28;;;3.82;51.44
47556;BME280;33291;46.222;26.460;2022-12-18T07:51:50;97740.25;;;3.80;51.39
47556;BME280;33291;46.222;26.460;2022-12-18T07:54:15;97731.78;;;3.76;51.24
47556;BME280;33291;46.222;26.460;2022-12-18T07:56:41;97740.38;;;3.77;51.24
47556;BME280;33291;46.222;26.460;2022-12-18T07:59:06;97743.72;;;3.79;51.90
47556;BME280;33291;46.222;26.460;2022-12-18T08:01:33;97751.38;;;3.80;51.04
47556;BME280;33291;46.222;26.460;2022-12-18T08:03:58;97728.00;;;3.64;50.67
47556;BME280;33291;46.222;26.460;2022-12-18T08:06:24;97749.91;;;3.74;51.27
47556;BME280;33291;46.222;26.460;2022-12-18T08:08:51;97758.44;;;3.77;50.97
47556;BME280;33291;46.222;26.460;2022-12-18T08:11:17;97765.38;;;3.74;51.18
47556;BME280;33291;46.222;26.460;2022-12-18T08:13:43;97771.31;;;3.77;50.77
47556;BME280;33291;46.222;26.460;2022-12-18T08:16:08;97758.63;;;3.72;50.67
47556;BME280;33291;46.222;26.460;2022-12-18T08:18:36;97767.94;;;3.74;50.88
47556;BME280;33291;46.222;26.460;2022-12-18T08:21:26;97783.88;;;3.84;50.56
47556;BME280;33291;46.222;26.460;2022-12-18T08:23:53;97777.78;;;3.85;49.91
47556;BME280;33291;46.222;26.460;2022-12-18T08:26:19;97778.84;;;3.81;50.13
47556;BME280;33291;46.222;26.460;2022-12-18T08:28:45;97772.06;;;3.79;50.37
47556;BME280;33291;46.222;26.460;2022-12-18T08:31:11;97795.00;;;3.85;50.29
47556;BME280;33291;46.222;26.460;2022-12-18T08:33:37;97787.28;;;3.85;49.67
47556;BME280;33291;46.222;26.460;2022-12-18T08:36:04;97775.41;;;3.81;49.74
47556;BME280;33291;46.222;26.460;2022-12-18T08:38:31;97778.44;;;3.90;49.27
47556;BME280;33291;46.222;26.460;2022-12-18T08:41:04;97781.59;;;3.97;49.16
47556;BME280;33291;46.222;26.460;2022-12-18T08:43:30;97777.72;;;4.26;48.41
47556;BME280;33291;46.222;26.460;2022-12-18T08:46:13;97785.53;;;4.25;48.23
47556;BME280;33291;46.222;26.460;2022-12-18T08:48:43;97790.13;;;4.18;48.38
47556;BME280;33291;46.222;26.460;2022-12-18T08:51:09;97797.03;;;4.18;48.50
47556;BME280;33291;46.222;26.460;2022-12-18T08:53:35;97781.19;;;4.06;48.40
47556;BME280;33291;46.222;26.460;2022-12-18T08:56:02;97791.75;;;4.21;48.74
47556;BME280;33291;46.222;26.460;2022-12-18T08:58:27;97791.09;;;4.16;48.90
47556;BME280;33291;46.222;26.460;2022-12-18T09:00:53;97800.66;;;4.14;48.55
47556;BME280;33291;46.222;26.460;2022-12-18T09:03:19;97794.88;;;4.08;48.81
47556;BME280;33291;46.222;26.460;2022-12-18T09:05:48;97797.59;;;4.05;49.12
47556;BME280;33291;46.222;26.460;2022-12-18T09:08:13;97799.38;;;4.03;48.98
47556;BME280;33291;46.222;26.460;2022-12-18T09:10:43;97799.50;;;4.00;49.32
47556;BME280;33291;46.222;26.460;2022-12-18T09:13:10;97799.63;;;3.97;49.67
47556;BME280;33291;46.222;26.460;2022-12-18T09:15:46;97814.84;;;4.03;49.34
47556;BME280;33291;46.222;26.460;2022-12-18T09:18:14;97795.25;;;3.99;49.30
47556;BME280;33291;46.222;26.460;2022-12-18T09:20:40;97799.56;;;3.99;49.52
47556;BME280;33291;46.222;26.460;2022-12-18T09:23:06;97793.78;;;3.94;49.43
47556;BME280;33291;46.222;26.460;2022-12-18T09:25:32;97798.47;;;4.04;49.44
47556;BME280;33291;46.222;26.460;2022-12-18T09:27:59;97801.47;;;4.14;49.63
47556;BME280;33291;46.222;26.460;2022-12-18T09:30:26;97789.66;;;4.10;49.10
47556;BME280;33291;46.222;26.460;2022-12-18T09:32:55;97798.16;;;4.12;48.79
47556;BME280;33291;46.222;26.460;2022-12-18T09:35:20;97808.25;;;4.17;48.84
47556;BME280;33291;46.222;26.460;2022-12-18T09:37:46;97802.41;;;4.13;48.51
47556;BME280;33291;46.222;26.460;2022-12-18T09:40:20;97792.78;;;4.17;48.96
47556;BME280;33291;46.222;26.460;2022-12-18T09:42:51;97800.53;;;4.17;49.22
47556;BME280;33291;46.222;26.460;2022-12-18T09:45:18;97803.03;;;4.18;49.64
47556;BME280;33291;46.222;26.460;2022-12-18T09:47:45;97805.47;;;4.21;49.18
47556;BME280;33291;46.222;26.460;2022-12-18T09:52:49;97808.13;;;4.20;48.50
47556;BME280;33291;46.222;26.460;2022-12-18T09:55:34;97812.66;;;4.15;48.71
47556;BME280;33291;46.222;26.460;2022-12-18T09:58:24;97813.88;;;4.06;48.85
47556;BME280;33291;46.222;26.460;2022-12-18T10:00:53;97822.72;;;4.00;48.89
47556;BME280;33291;46.222;26.460;2022-12-18T10:03:19;97807.44;;;3.96;48.92
47556;BME280;33291;46.222;26.460;2022-12-18T10:13:55;97805.44;;;3.82;48.57
47556;BME280;33291;46.222;26.460;2022-12-18T10:16:29;97814.81;;;3.84;48.40
47556;BME280;33291;46.222;26.460;2022-12-18T10:21:36;97808.78;;;3.84;48.53
47556;BME280;33291;46.222;26.460;2022-12-18T10:26:31;97805.94;;;3.90;48.28
47556;BME280;33291;46.222;26.460;2022-12-18T10:28:58;97812.41;;;4.00;48.28
47556;BME280;33291;46.222;26.460;2022-12-18T10:31:24;97812.34;;;4.02;47.56
47556;BME280;33291;46.222;26.460;2022-12-18T10:33:51;97806.63;;;4.14;46.42
47556;BME280;33291;46.222;26.460;2022-12-18T10:36:18;97820.28;;;4.37;45.96
47556;BME280;33291;46.222;26.460;2022-12-18T10:38:45;97810.22;;;4.31;45.69
47556;BME280;33291;46.222;26.460;2022-12-18T10:43:47;97817.69;;;4.37;46.71
47556;BME280;33291;46.222;26.460;2022-12-18T10:46:17;97835.69;;;4.38;46.85
47556;BME280;33291;46.222;26.460;2022-12-18T10:51:49;97823.25;;;4.27;47.56
47556;BME280;33291;46.222;26.460;2022-12-18T10:54:17;97825.34;;;4.19;47.31
47556;BME280;33291;46.222;26.460;2022-12-18T10:56:44;97842.69;;;4.16;47.52
47556;BME280;33291;46.222;26.460;2022-12-18T10:59:12;97834.13;;;4.15;48.18
47556;BME280;33291;46.222;26.460;2022-12-18T11:01:52;97836.50;;;4.20;48.23
47556;BME280;33291;46.222;26.460;2022-12-18T11:04:31;97836.34;;;4.23;47.82
47556;BME280;33291;46.222;26.460;2022-12-18T11:07:02;97838.94;;;4.23;48.11
47556;BME280;33291;46.222;26.460;2022-12-18T11:09:30;97843.91;;;4.27;47.07
47556;BME280;33291;46.222;26.460;2022-12-18T11:11:59;97844.84;;;4.25;47.05
47556;BME280;33291;46.222;26.460;2022-12-18T11:14:31;97841.50;;;4.23;47.12
47556;BME280;33291;46.222;26.460;2022-12-18T11:16:59;97848.50;;;4.21;46.86
47556;BME280;33291;46.222;26.460;2022-12-18T11:19:43;97845.00;;;4.22;47.00
47556;BME280;33291;46.222;26.460;2022-12-18T11:22:23;97846.94;;;4.17;46.72
47556;BME280;33291;46.222;26.460;2022-12-18T11:24:58;97845.91;;;4.21;47.21
47556;BME280;33291;46.222;26.460;2022-12-18T11:27:25;97848.56;;;4.19;47.72
47556;BME280;33291;46.222;26.460;2022-12-18T11:29:51;97855.50;;;4.17;47.78
47556;BME280;33291;46.222;26.460;2022-12-18T11:32:39;97846.44;;;4.08;48.19
47556;BME280;33291;46.222;26.460;2022-12-18T11:37:40;97859.22;;;4.12;48.82
47556;BME280;33291;46.222;26.460;2022-12-18T11:40:14;97858.28;;;4.13;48.94
47556;BME280;33291;46.222;26.460;2022-12-18T11:47:52;97867.06;;;4.08;49.12
47556;BME280;33291;46.222;26.460;2022-12-18T11:50:26;97860.28;;;4.06;49.34
47556;BME280;33291;46.222;26.460;2022-12-18T11:52:54;97855.34;;;4.01;49.08
47556;BME280;33291;46.222;26.460;2022-12-18T11:55:33;97863.19;;;3.98;49.57
47556;BME280;33291;46.222;26.460;2022-12-18T12:03:58;97874.66;;;3.91;49.41
47556;BME280;33291;46.222;26.460;2022-12-18T12:07:10;97873.09;;;3.87;49.52
47556;BME280;33291;46.222;26.460;2022-12-18T12:14:58;97874.97;;;3.83;49.67
47556;BME280;33291;46.222;26.460;2022-12-18T12:17:47;97875.81;;;3.84;49.86
47556;BME280;33291;46.222;26.460;2022-12-18T12:20:26;97870.78;;;3.81;49.69
47556;BME280;33291;46.222;26.460;2022-12-18T12:26:17;97872.47;;;3.82;49.74
47556;BME280;33291;46.222;26.460;2022-12-18T12:28:52;97878.63;;;3.78;49.48
47556;BME280;33291;46.222;26.460;2022-12-18T12:39:38;97895.78;;;3.79;49.56
47556;BME280;33291;46.222;26.460;2022-12-18T12:42:12;97894.84;;;3.81;50.00
47556;BME280;33291;46.222;26.460;2022-12-18T12:44:59;97906.03;;;3.80;49.60
47556;BME280;33291;46.222;26.460;2022-12-18T12:47:35;97904.66;;;3.71;49.61
47556;BME280;33291;46.222;26.460;2022-12-18T12:50:06;97899.56;;;3.70;49.49
47556;BME280;33291;46.222;26.460;2022-12-18T12:52:44;97916.41;;;3.79;49.10
47556;BME280;33291;46.222;26.460;2022-12-18T12:55:29;97921.56;;;3.79;48.80
47556;BME280;33291;46.222;26.460;2022-12-18T13:00:20;97928.47;;;3.78;52.42
47556;BME280;33291;46.222;26.460;2022-12-18T13:05:57;97941.75;;;3.67;56.34
47556;BME280;33291;46.222;26.460;2022-12-18T13:08:33;97949.84;;;3.58;58.10
47556;BME280;33291;46.222;26.460;2022-12-18T13:11:35;97947.22;;;3.37;59.33
47556;BME280;33291;46.222;26.460;2022-12-18T13:14:25;97967.59;;;3.20;60.48
47556;BME280;33291;46.222;26.460;2022-12-18T13:16:52;97965.38;;;3.11;60.86
47556;BME280;33291;46.222;26.460;2022-12-18T13:19:37;97955.09;;;2.87;61.67
47556;BME280;33291;46.222;26.460;2022-12-18T13:22:04;97966.22;;;2.88;61.32
47556;BME280;33291;46.222;26.460;2022-12-18T13:24:30;97966.22;;;2.88;61.57
47556;BME280;33291;46.222;26.460;2022-12-18T13:26:56;97972.06;;;2.91;61.52
47556;BME280;33291;46.222;26.460;2022-12-18T13:29:44;97979.91;;;2.88;62.25
47556;BME280;33291;46.222;26.460;2022-12-18T13:32:20;97992.78;;;2.88;62.42
47556;BME280;33291;46.222;26.460;2022-12-18T13:34:46;97994.63;;;2.84;62.71
47556;BME280;33291;46.222;26.460;2022-12-18T13:37:40;98002.47;;;2.81;63.16
47556;BME280;33291;46.222;26.460;2022-12-18T13:45:59;97995.59;;;2.57;63.94
47556;BME280;33291;46.222;26.460;2022-12-18T13:48:26;97978.13;;;2.40;64.48
47556;BME280;33291;46.222;26.460;2022-12-18T13:51:13;98015.47;;;2.52;65.13
47556;BME280;33291;46.222;26.460;2022-12-18T13:54:06;98024.16;;;2.49;65.03
47556;BME280;33291;46.222;26.460;2022-12-18T13:56:43;98019.38;;;2.37;65.46
47556;BME280;33291;46.222;26.460;2022-12-18T13:59:23;98028.78;;;2.38;65.74
47556;BME280;33291;46.222;26.460;2022-12-18T14:01:55;98024.06;;;2.25;66.16
47556;BME280;33291;46.222;26.460;2022-12-18T14:04:24;98038.59;;;2.26;66.46
47556;BME280;33291;46.222;26.460;2022-12-18T14:06:53;98039.47;;;2.25;66.41
47556;BME280;33291;46.222;26.460;2022-12-18T14:09:26;98049.88;;;2.22;66.20
47556;BME280;33291;46.222;26.460;2022-12-18T14:11:52;98047.44;;;2.18;66.44
47556;BME280;33291;46.222;26.460;2022-12-18T14:14:44;98009.63;;;1.94;66.75
47556;BME280;33291;46.222;26.460;2022-12-18T14:17:11;98057.78;;;2.16;66.31
47556;BME280;33291;46.222;26.460;2022-12-18T14:19:41;98056.97;;;2.14;66.17
47556;BME280;33291;46.222;26.460;2022-12-18T14:22:18;98045.31;;;2.04;66.42
47556;BME280;33291;46.222;26.460;2022-12-18T14:24:44;98064.88;;;2.08;66.68
47556;BME280;33291;46.222;26.460;2022-12-18T14:27:27;98071.75;;;2.07;66.92
47556;BME280;33291;46.222;26.460;2022-12-18T14:29:53;98077.81;;;2.05;66.81
47556;BME280;33291;46.222;26.460;2022-12-18T14:32:20;98072.88;;;1.99;67.30
47556;BME280;33291;46.222;26.460;2022-12-18T14:34:51;98085.63;;;2.02;67.63
47556;BME280;33291;46.222;26.460;2022-12-18T14:37:20;98091.56;;;2.04;67.38